sensor_id;sensor_type;location;lat;lon;timestamp;temperature;humidity
23083;DHT22;11709;52.420;10.538;2023-02-01T00:02:06;5.00;32.60
23083;DHT22;11709;52.420;10.538;2023-02-01T00:06:08;5.00;31.10
23083;DHT22;11709;52.420;10.538;2023-02-01T00:10:11;5.00;30.80
23083;DHT22;11709;52.420;10.538;2023-02-01T00:14:13;5.10;31.80
23083;DHT22;11709;52.420;10.538;2023-02-01T00:18:16;5.10;28.50
23083;DHT22;11709;52.420;10.538;2023-02-01T00:22:18;5.20;27.00
23083;DHT22;11709;52.420;10.538;2023-02-01T00:26:25;5.20;23.00
23083;DHT22;11709;52.420;10.538;2023-02-01T00:30:26;5.30;17.10
23083;DHT22;11709;52.420;10.538;2023-02-01T00:34:29;5.40;12.60
23083;DHT22;11709;52.420;10.538;2023-02-01T00:38:33;5.40;79.90
23083;DHT22;11709;52.420;10.538;2023-02-01T00:42:36;5.40;24.60
23083;DHT22;11709;52.420;10.538;2023-02-01T00:46:38;5.40;27.60
23083;DHT22;11709;52.420;10.538;2023-02-01T00:50:42;5.40;32.90
23083;DHT22;11709;52.420;10.538;2023-02-01T00:54:45;5.40;33.80
23083;DHT22;11709;52.420;10.538;2023-02-01T00:58:47;5.50;40.70
23083;DHT22;11709;52.420;10.538;2023-02-01T01:02:50;5.40;42.50
23083;DHT22;11709;52.420;10.538;2023-02-01T01:06:52;5.40;55.20
23083;DHT22;11709;52.420;10.538;2023-02-01T01:10:55;5.40;51.80
23083;DHT22;11709;52.420;10.538;2023-02-01T01:14:58;5.40;57.50
23083;DHT22;11709;52.420;10.538;2023-02-01T01:19:00;5.40;54.00
23083;DHT22;11709;52.420;10.538;2023-02-01T01:23:03;5.40;54.10
23083;DHT22;11709;52.420;10.538;2023-02-01T01:27:06;5.40;60.20
23083;DHT22;11709;52.420;10.538;2023-02-01T01:31:10;5.40;58.40
23083;DHT22;11709;52.420;10.538;2023-02-01T01:35:13;5.40;40.90
23083;DHT22;11709;52.420;10.538;2023-02-01T01:39:15;5.40;46.20
23083;DHT22;11709;52.420;10.538;2023-02-01T01:43:19;5.40;41.10
23083;DHT22;11709;52.420;10.538;2023-02-01T01:47:28;5.30;44.80
23083;DHT22;11709;52.420;10.538;2023-02-01T01:51:33;5.40;40.90
23083;DHT22;11709;52.420;10.538;2023-02-01T01:55:38;5.40;43.10
23083;DHT22;11709;52.420;10.538;2023-02-01T01:59:45;5.40;53.50
23083;DHT22;11709;52.420;10.538;2023-02-01T02:03:47;5.40;37.30
23083;DHT22;11709;52.420;10.538;2023-02-01T02:07:52;5.40;39.40
23083;DHT22;11709;52.420;10.538;2023-02-01T02:11:55;5.40;49.20
23083;DHT22;11709;52.420;10.538;2023-02-01T02:16:15;5.40;47.70
23083;DHT22;11709;52.420;10.538;2023-02-01T02:20:30;5.30;32.70
23083;DHT22;11709;52.420;10.538;2023-02-01T02:28:56;5.40;24.90
23083;DHT22;11709;52.420;10.538;2023-02-01T02:33:23;5.30;25.00
23083;DHT22;11709;52.420;10.538;2023-02-01T02:37:36;5.40;20.60
23083;DHT22;11709;52.420;10.538;2023-02-01T02:42:02;5.30;22.30
23083;DHT22;11709;52.420;10.538;2023-02-01T02:46:46;5.30;18.60
23083;DHT22;11709;52.420;10.538;2023-02-01T02:51:01;5.30;13.30
23083;DHT22;11709;52.420;10.538;2023-02-01T02:55:24;5.30;13.80
23083;DHT22;11709;52.420;10.538;2023-02-01T02:59:28;5.30;13.00
23083;DHT22;11709;52.420;10.538;2023-02-01T03:03:50;5.30;13.00
23083;DHT22;11709;52.420;10.538;2023-02-01T03:12:20;5.30;10.20
23083;DHT22;11709;52.420;10.538;2023-02-01T03:20:49;5.30;11.30
23083;DHT22;11709;52.420;10.538;2023-02-01T03:24:54;5.40;12.50
23083;DHT22;11709;52.420;10.538;2023-02-01T03:29:07;5.40;10.90
23083;DHT22;11709;52.420;10.538;2023-02-01T03:33:09;5.30;11.60
23083;DHT22;11709;52.420;10.538;2023-02-01T03:37:16;5.30;11.30
23083;DHT22;11709;52.420;10.538;2023-02-01T03:41:33;5.30;11.20
23083;DHT22;11709;52.420;10.538;2023-02-01T03:45:45;5.40;11.10
23083;DHT22;11709;52.420;10.538;2023-02-01T03:49:52;5.30;11.80
23083;DHT22;11709;52.420;10.538;2023-02-01T03:53:56;5.30;11.90
23083;DHT22;11709;52.420;10.538;2023-02-01T04:02:08;5.30;12.00
23083;DHT22;11709;52.420;10.538;2023-02-01T04:06:10;5.30;10.60
23083;DHT22;11709;52.420;10.538;2023-02-01T04:10:15;5.30;10.60
23083;DHT22;11709;52.420;10.538;2023-02-01T04:14:17;5.30;9.30
23083;DHT22;11709;52.420;10.538;2023-02-01T04:18:20;5.30;9.10
23083;DHT22;11709;52.420;10.538;2023-02-01T04:22:22;5.20;12.20
23083;DHT22;11709;52.420;10.538;2023-02-01T04:26:25;5.30;21.20
23083;DHT22;11709;52.420;10.538;2023-02-01T04:30:27;5.30;30.40
23083;DHT22;11709;52.420;10.538;2023-02-01T04:34:31;5.30;36.80
23083;DHT22;11709;52.420;10.538;2023-02-01T04:38:33;5.30;41.20
23083;DHT22;11709;52.420;10.538;2023-02-01T04:42:36;5.20;44.10
23083;DHT22;11709;52.420;10.538;2023-02-01T04:46:38;5.30;44.00
23083;DHT22;11709;52.420;10.538;2023-02-01T04:50:41;5.30;38.60
23083;DHT22;11709;52.420;10.538;2023-02-01T04:54:43;5.30;38.30
23083;DHT22;11709;52.420;10.538;2023-02-01T04:58:46;5.30;38.60
23083;DHT22;11709;52.420;10.538;2023-02-01T05:02:48;5.30;37.30
23083;DHT22;11709;52.420;10.538;2023-02-01T05:06:51;5.30;36.90
23083;DHT22;11709;52.420;10.538;2023-02-01T05:10:53;5.40;36.60
23083;DHT22;11709;52.420;10.538;2023-02-01T05:14:56;5.30;40.00
23083;DHT22;11709;52.420;10.538;2023-02-01T05:18:59;5.40;46.10
23083;DHT22;11709;52.420;10.538;2023-02-01T05:23:01;5.40;57.90
23083;DHT22;11709;52.420;10.538;2023-02-01T05:27:03;5.30;88.70
23083;DHT22;11709;52.420;10.538;2023-02-01T05:31:10;5.30;99.90
23083;DHT22;11709;52.420;10.538;2023-02-01T05:35:13;5.20;99.90
23083;DHT22;11709;52.420;10.538;2023-02-01T05:39:16;5.10;99.90
23083;DHT22;11709;52.420;10.538;2023-02-01T05:43:18;5.00;99.90
23083;DHT22;11709;52.420;10.538;2023-02-01T05:47:21;5.00;99.90
23083;DHT22;11709;52.420;10.538;2023-02-01T05:51:23;4.90;99.90
23083;DHT22;11709;52.420;10.538;2023-02-01T05:55:26;4.80;99.90
23083;DHT22;11709;52.420;10.538;2023-02-01T05:59:28;4.70;99.90
23083;DHT22;11709;52.420;10.538;2023-02-01T06:03:31;4.60;99.90
23083;DHT22;11709;52.420;10.538;2023-02-01T06:07:33;4.50;99.90
23083;DHT22;11709;52.420;10.538;2023-02-01T06:11:36;4.50;99.90
23083;DHT22;11709;52.420;10.538;2023-02-01T06:15:38;4.50;99.90
23083;DHT22;11709;52.420;10.538;2023-02-01T06:19:42;4.50;99.90
23083;DHT22;11709;52.420;10.538;2023-02-01T06:23:46;4.50;99.90
23083;DHT22;11709;52.420;10.538;2023-02-01T06:27:48;4.50;99.90
23083;DHT22;11709;52.420;10.538;2023-02-01T06:31:51;4.50;99.90
23083;DHT22;11709;52.420;10.538;2023-02-01T06:35:58;4.50;99.90
23083;DHT22;11709;52.420;10.538;2023-02-01T06:40:01;4.50;99.90
23083;DHT22;11709;52.420;10.538;2023-02-01T06:44:03;4.60;99.90
23083;DHT22;11709;52.420;10.538;2023-02-01T06:48:06;4.60;99.90
23083;DHT22;11709;52.420;10.538;2023-02-01T06:52:08;4.60;99.90
23083;DHT22;11709;52.420;10.538;2023-02-01T06:56:11;4.60;99.90
23083;DHT22;11709;52.420;10.538;2023-02-01T07:00:14;4.50;99.90
23083;DHT22;11709;52.420;10.538;2023-02-01T07:04:16;4.50;99.90
23083;DHT22;11709;52.420;10.538;2023-02-01T07:08:19;4.40;99.90
23083;DHT22;11709;52.420;10.538;2023-02-01T07:12:21;4.40;99.90
23083;DHT22;11709;52.420;10.538;2023-02-01T07:16:24;4.40;99.90
23083;DHT22;11709;52.420;10.538;2023-02-01T07:20:26;4.40;99.90
23083;DHT22;11709;52.420;10.538;2023-02-01T07:24:29;4.40;99.90
23083;DHT22;11709;52.420;10.538;2023-02-01T07:28:34;4.50;99.90
23083;DHT22;11709;52.420;10.538;2023-02-01T07:32:37;4.50;99.90
23083;DHT22;11709;52.420;10.538;2023-02-01T07:36:39;4.50;99.90
23083;DHT22;11709;52.420;10.538;2023-02-01T07:40:43;4.50;99.90
23083;DHT22;11709;52.420;10.538;2023-02-01T07:44:45;4.60;99.90
23083;DHT22;11709;52.420;10.538;2023-02-01T07:48:48;4.40;99.90
23083;DHT22;11709;52.420;10.538;2023-02-01T07:52:50;4.60;99.90
23083;DHT22;11709;52.420;10.538;2023-02-01T07:56:54;4.60;99.90
23083;DHT22;11709;52.420;10.538;2023-02-01T08:00:57;4.60;99.90
23083;DHT22;11709;52.420;10.538;2023-02-01T08:05:18;4.60;99.90
23083;DHT22;11709;52.420;10.538;2023-02-01T08:09:20;4.60;99.90
23083;DHT22;11709;52.420;10.538;2023-02-01T08:13:23;4.60;99.90
23083;DHT22;11709;52.420;10.538;2023-02-01T08:17:25;4.60;99.90
23083;DHT22;11709;52.420;10.538;2023-02-01T08:21:29;4.60;99.90
23083;DHT22;11709;52.420;10.538;2023-02-01T08:25:34;4.60;99.90
23083;DHT22;11709;52.420;10.538;2023-02-01T08:29:37;4.60;99.90
23083;DHT22;11709;52.420;10.538;2023-02-01T08:33:40;4.60;99.90
23083;DHT22;11709;52.420;10.538;2023-02-01T08:37:43;4.60;99.90
23083;DHT22;11709;52.420;10.538;2023-02-01T08:41:45;4.60;99.90
23083;DHT22;11709;52.420;10.538;2023-02-01T08:45:50;4.50;99.90
23083;DHT22;11709;52.420;10.538;2023-02-01T08:49:54;4.50;99.90
23083;DHT22;11709;52.420;10.538;2023-02-01T08:53:57;4.50;99.90
23083;DHT22;11709;52.420;10.538;2023-02-01T08:57:59;4.50;99.90
23083;DHT22;11709;52.420;10.538;2023-02-01T09:02:02;4.50;99.90
23083;DHT22;11709;52.420;10.538;2023-02-01T09:06:07;4.50;99.90
23083;DHT22;11709;52.420;10.538;2023-02-01T09:10:10;4.70;99.90
23083;DHT22;11709;52.420;10.538;2023-02-01T09:14:13;4.80;99.90
23083;DHT22;11709;52.420;10.538;2023-02-01T09:18:15;4.80;99.90
23083;DHT22;11709;52.420;10.538;2023-02-01T09:22:18;4.80;99.90
23083;DHT22;11709;52.420;10.538;2023-02-01T09:26:20;4.80;99.90
23083;DHT22;11709;52.420;10.538;2023-02-01T09:30:23;4.90;99.90
23083;DHT22;11709;52.420;10.538;2023-02-01T09:34:25;4.90;99.90
23083;DHT22;11709;52.420;10.538;2023-02-01T09:38:28;4.80;99.90
23083;DHT22;11709;52.420;10.538;2023-02-01T09:46:59;4.70;99.90
23083;DHT22;11709;52.420;10.538;2023-02-01T09:51:04;4.80;99.90
23083;DHT22;11709;52.420;10.538;2023-02-01T09:55:19;5.00;99.90
23083;DHT22;11709;52.420;10.538;2023-02-01T09:59:39;5.20;99.90
23083;DHT22;11709;52.420;10.538;2023-02-01T10:03:43;5.30;99.90
23083;DHT22;11709;52.420;10.538;2023-02-01T10:08:01;5.40;99.90
23083;DHT22;11709;52.420;10.538;2023-02-01T10:16:51;5.40;99.90
23083;DHT22;11709;52.420;10.538;2023-02-01T10:25:23;5.40;99.90
23083;DHT22;11709;52.420;10.538;2023-02-01T10:29:31;5.30;99.90
23083;DHT22;11709;52.420;10.538;2023-02-01T10:33:43;5.30;99.90
23083;DHT22;11709;52.420;10.538;2023-02-01T10:37:43;5.30;99.90
23083;DHT22;11709;52.420;10.538;2023-02-01T10:41:48;5.20;99.90
23083;DHT22;11709;52.420;10.538;2023-02-01T10:45:51;5.20;99.90
23083;DHT22;11709;52.420;10.538;2023-02-01T10:49:57;5.30;99.90
23083;DHT22;11709;52.420;10.538;2023-02-01T10:54:08;5.30;99.90
23083;DHT22;11709;52.420;10.538;2023-02-01T10:58:29;5.40;99.90
23083;DHT22;11709;52.420;10.538;2023-02-01T11:02:33;5.60;99.90
23083;DHT22;11709;52.420;10.538;2023-02-01T11:06:45;5.70;99.90
23083;DHT22;11709;52.420;10.538;2023-02-01T11:10:45;5.80;99.90
23083;DHT22;11709;52.420;10.538;2023-02-01T11:14:47;5.90;99.90
23083;DHT22;11709;52.420;10.538;2023-02-01T11:18:54;6.00;99.90
23083;DHT22;11709;52.420;10.538;2023-02-01T11:22:57;6.00;99.90
23083;DHT22;11709;52.420;10.538;2023-02-01T11:27:02;6.00;99.90
23083;DHT22;11709;52.420;10.538;2023-02-01T11:31:11;6.10;99.90
23083;DHT22;11709;52.420;10.538;2023-02-01T11:35:17;6.10;99.90
23083;DHT22;11709;52.420;10.538;2023-02-01T11:39:32;6.20;99.90
23083;DHT22;11709;52.420;10.538;2023-02-01T11:43:35;6.30;99.90
23083;DHT22;11709;52.420;10.538;2023-02-01T11:47:41;6.40;99.90
23083;DHT22;11709;52.420;10.538;2023-02-01T11:52:00;6.50;99.90
23083;DHT22;11709;52.420;10.538;2023-02-01T11:56:11;6.60;99.90
23083;DHT22;11709;52.420;10.538;2023-02-01T12:00:25;6.60;99.90
23083;DHT22;11709;52.420;10.538;2023-02-01T12:04:55;6.70;99.90
23083;DHT22;11709;52.420;10.538;2023-02-01T12:09:01;6.70;99.90
23083;DHT22;11709;52.420;10.538;2023-02-01T12:17:54;6.90;70.40
23083;DHT22;11709;52.420;10.538;2023-02-01T12:22:06;6.90;38.70
23083;DHT22;11709;52.420;10.538;2023-02-01T12:26:32;6.90;42.10
23083;DHT22;11709;52.420;10.538;2023-02-01T12:31:01;6.90;50.80
23083;DHT22;11709;52.420;10.538;2023-02-01T12:35:27;6.90;50.00
23083;DHT22;11709;52.420;10.538;2023-02-01T12:39:38;6.80;46.40
23083;DHT22;11709;52.420;10.538;2023-02-01T12:43:58;6.70;49.40
23083;DHT22;11709;52.420;10.538;2023-02-01T12:47:48;6.70;61.60
23083;DHT22;11709;52.420;10.538;2023-02-01T12:51:54;6.50;46.20
23083;DHT22;11709;52.420;10.538;2023-02-01T12:56:01;6.50;47.80
23083;DHT22;11709;52.420;10.538;2023-02-01T13:00:18;6.30;86.80
23083;DHT22;11709;52.420;10.538;2023-02-01T13:04:26;6.10;99.90
23083;DHT22;11709;52.420;10.538;2023-02-01T13:08:33;5.90;99.90
23083;DHT22;11709;52.420;10.538;2023-02-01T13:12:36;5.80;99.90
23083;DHT22;11709;52.420;10.538;2023-02-01T13:16:42;5.60;99.90
23083;DHT22;11709;52.420;10.538;2023-02-01T13:20:54;5.50;99.90
23083;DHT22;11709;52.420;10.538;2023-02-01T13:25:13;5.40;99.90
23083;DHT22;11709;52.420;10.538;2023-02-01T13:29:16;5.40;99.90
23083;DHT22;11709;52.420;10.538;2023-02-01T13:37:59;5.30;99.90
23083;DHT22;11709;52.420;10.538;2023-02-01T13:42:23;5.20;99.90
23083;DHT22;11709;52.420;10.538;2023-02-01T13:46:26;5.20;99.90
23083;DHT22;11709;52.420;10.538;2023-02-01T13:50:34;5.10;99.90
23083;DHT22;11709;52.420;10.538;2023-02-01T13:54:40;5.00;99.90
23083;DHT22;11709;52.420;10.538;2023-02-01T13:58:44;4.80;99.90
23083;DHT22;11709;52.420;10.538;2023-02-01T14:03:02;4.70;99.90
23083;DHT22;11709;52.420;10.538;2023-02-01T14:07:15;4.60;99.90
23083;DHT22;11709;52.420;10.538;2023-02-01T14:11:37;4.60;99.90
23083;DHT22;11709;52.420;10.538;2023-02-01T14:15:37;4.60;99.90
23083;DHT22;11709;52.420;10.538;2023-02-01T14:19:39;4.60;99.90
23083;DHT22;11709;52.420;10.538;2023-02-01T14:27:57;4.50;99.90
23083;DHT22;11709;52.420;10.538;2023-02-01T14:32:22;4.40;99.90
23083;DHT22;11709;52.420;10.538;2023-02-01T14:36:38;4.40;99.90
23083;DHT22;11709;52.420;10.538;2023-02-01T14:40:32;4.40;99.90
23083;DHT22;11709;52.420;10.538;2023-02-01T14:44:37;4.40;99.90
23083;DHT22;11709;52.420;10.538;2023-02-01T14:48:42;4.40;99.90
23083;DHT22;11709;52.420;10.538;2023-02-01T14:57:18;4.40;99.90
23083;DHT22;11709;52.420;10.538;2023-02-01T15:01:25;4.40;99.90
23083;DHT22;11709;52.420;10.538;2023-02-01T15:05:32;4.50;99.90
23083;DHT22;11709;52.420;10.538;2023-02-01T15:09:43;4.30;99.90
23083;DHT22;11709;52.420;10.538;2023-02-01T15:13:52;4.20;99.90
23083;DHT22;11709;52.420;10.538;2023-02-01T15:17:57;4.10;99.90
23083;DHT22;11709;52.420;10.538;2023-02-01T15:22:03;4.10;99.90
23083;DHT22;11709;52.420;10.538;2023-02-01T15:26:05;4.00;99.90
23083;DHT22;11709;52.420;10.538;2023-02-01T15:30:17;4.00;99.90
23083;DHT22;11709;52.420;10.538;2023-02-01T15:34:18;4.00;99.90
23083;DHT22;11709;52.420;10.538;2023-02-01T15:38:31;4.10;99.90
23083;DHT22;11709;52.420;10.538;2023-02-01T15:42:35;4.00;99.90
23083;DHT22;11709;52.420;10.538;2023-02-01T15:46:41;3.90;99.90
23083;DHT22;11709;52.420;10.538;2023-02-01T15:50:44;3.90;99.90
23083;DHT22;11709;52.420;10.538;2023-02-01T15:54:50;3.80;99.90
23083;DHT22;11709;52.420;10.538;2023-02-01T15:58:56;3.80;99.90
23083;DHT22;11709;52.420;10.538;2023-02-01T16:03:02;3.70;99.90
23083;DHT22;11709;52.420;10.538;2023-02-01T16:07:20;3.60;99.90
23083;DHT22;11709;52.420;10.538;2023-02-01T16:15:16;3.60;99.90
23083;DHT22;11709;52.420;10.538;2023-02-01T16:19:19;3.50;99.90
23083;DHT22;11709;52.420;10.538;2023-02-01T16:23:22;3.50;99.90
23083;DHT22;11709;52.420;10.538;2023-02-01T16:27:25;3.50;99.90
23083;DHT22;11709;52.420;10.538;2023-02-01T16:31:29;3.60;99.90
23083;DHT22;11709;52.420;10.538;2023-02-01T16:35:35;3.70;99.90
23083;DHT22;11709;52.420;10.538;2023-02-01T16:39:37;3.80;99.90
23083;DHT22;11709;52.420;10.538;2023-02-01T16:43:40;3.80;99.90
23083;DHT22;11709;52.420;10.538;2023-02-01T16:47:53;3.90;99.90
23083;DHT22;11709;52.420;10.538;2023-02-01T16:51:56;3.90;99.90
23083;DHT22;11709;52.420;10.538;2023-02-01T16:55:59;3.90;99.90
23083;DHT22;11709;52.420;10.538;2023-02-01T17:00:02;4.00;99.90
23083;DHT22;11709;52.420;10.538;2023-02-01T17:04:05;4.00;99.90
23083;DHT22;11709;52.420;10.538;2023-02-01T17:08:09;4.00;99.90
23083;DHT22;11709;52.420;10.538;2023-02-01T17:16:29;4.10;99.90
23083;DHT22;11709;52.420;10.538;2023-02-01T17:20:32;4.10;99.90
23083;DHT22;11709;52.420;10.538;2023-02-01T17:24:35;4.20;99.90
23083;DHT22;11709;52.420;10.538;2023-02-01T17:28:37;4.30;99.90
23083;DHT22;11709;52.420;10.538;2023-02-01T17:32:40;4.30;99.90
23083;DHT22;11709;52.420;10.538;2023-02-01T17:36:44;4.40;99.90
23083;DHT22;11709;52.420;10.538;2023-02-01T17:40:47;4.30;99.90
23083;DHT22;11709;52.420;10.538;2023-02-01T17:44:51;4.20;99.90
23083;DHT22;11709;52.420;10.538;2023-02-01T17:48:56;4.10;99.90
23083;DHT22;11709;52.420;10.538;2023-02-01T17:52:58;3.90;99.90
23083;DHT22;11709;52.420;10.538;2023-02-01T17:57:01;3.90;99.90
23083;DHT22;11709;52.420;10.538;2023-02-01T18:01:05;3.90;99.90
23083;DHT22;11709;52.420;10.538;2023-02-01T18:05:28;3.80;99.90
23083;DHT22;11709;52.420;10.538;2023-02-01T18:09:31;3.90;99.90
23083;DHT22;11709;52.420;10.538;2023-02-01T18:13:34;3.90;99.90
23083;DHT22;11709;52.420;10.538;2023-02-01T18:17:36;4.00;99.90
23083;DHT22;11709;52.420;10.538;2023-02-01T18:21:41;4.00;99.90
23083;DHT22;11709;52.420;10.538;2023-02-01T18:25:44;4.00;99.90
23083;DHT22;11709;52.420;10.538;2023-02-01T18:29:47;4.00;99.90
23083;DHT22;11709;52.420;10.538;2023-02-01T18:33:51;3.90;99.90
23083;DHT22;11709;52.420;10.538;2023-02-01T18:37:55;3.90;99.90
23083;DHT22;11709;52.420;10.538;2023-02-01T18:41:58;4.00;99.90
23083;DHT22;11709;52.420;10.538;2023-02-01T18:46:01;4.00;99.90
23083;DHT22;11709;52.420;10.538;2023-02-01T18:50:03;4.00;99.90
23083;DHT22;11709;52.420;10.538;2023-02-01T18:54:07;4.00;99.90
23083;DHT22;11709;52.420;10.538;2023-02-01T18:58:12;4.00;99.90
23083;DHT22;11709;52.420;10.538;2023-02-01T19:02:16;3.90;99.90
23083;DHT22;11709;52.420;10.538;2023-02-01T19:06:18;3.70;99.90
23083;DHT22;11709;52.420;10.538;2023-02-01T19:10:22;3.60;99.90
23083;DHT22;11709;52.420;10.538;2023-02-01T19:14:24;3.50;99.90
23083;DHT22;11709;52.420;10.538;2023-02-01T19:18:27;3.50;99.90
23083;DHT22;11709;52.420;10.538;2023-02-01T19:22:29;3.40;99.90
23083;DHT22;11709;52.420;10.538;2023-02-01T19:26:32;3.40;99.90
23083;DHT22;11709;52.420;10.538;2023-02-01T19:30:35;3.30;99.90
23083;DHT22;11709;52.420;10.538;2023-02-01T19:34:38;3.40;99.90
23083;DHT22;11709;52.420;10.538;2023-02-01T19:38:40;3.40;99.90
23083;DHT22;11709;52.420;10.538;2023-02-01T19:42:43;3.40;99.90
23083;DHT22;11709;52.420;10.538;2023-02-01T19:46:46;3.50;99.90
23083;DHT22;11709;52.420;10.538;2023-02-01T19:50:49;3.50;99.90
23083;DHT22;11709;52.420;10.538;2023-02-01T19:54:52;3.60;99.90
23083;DHT22;11709;52.420;10.538;2023-02-01T19:58:55;3.60;99.90
23083;DHT22;11709;52.420;10.538;2023-02-01T20:02:57;3.70;99.90
23083;DHT22;11709;52.420;10.538;2023-02-01T20:07:00;3.70;99.90
23083;DHT22;11709;52.420;10.538;2023-02-01T20:11:06;3.70;99.90
23083;DHT22;11709;52.420;10.538;2023-02-01T20:15:09;3.80;99.90
23083;DHT22;11709;52.420;10.538;2023-02-01T20:19:13;3.90;99.90
23083;DHT22;11709;52.420;10.538;2023-02-01T20:23:15;4.00;99.90
23083;DHT22;11709;52.420;10.538;2023-02-01T20:27:19;3.90;99.90
23083;DHT22;11709;52.420;10.538;2023-02-01T20:31:23;3.30;99.90
23083;DHT22;11709;52.420;10.538;2023-02-01T20:35:26;3.60;99.90
23083;DHT22;11709;52.420;10.538;2023-02-01T20:39:29;3.60;99.90
23083;DHT22;11709;52.420;10.538;2023-02-01T20:43:32;4.90;99.90
23083;DHT22;11709;52.420;10.538;2023-02-01T20:47:35;3.50;99.90
23083;DHT22;11709;52.420;10.538;2023-02-01T20:51:37;3.60;99.90
23083;DHT22;11709;52.420;10.538;2023-02-01T20:55:40;3.70;99.90
23083;DHT22;11709;52.420;10.538;2023-02-01T20:59:42;3.80;99.90
23083;DHT22;11709;52.420;10.538;2023-02-01T21:03:45;4.00;99.90
23083;DHT22;11709;52.420;10.538;2023-02-01T21:07:47;4.10;99.90
23083;DHT22;11709;52.420;10.538;2023-02-01T21:11:50;4.20;99.90
23083;DHT22;11709;52.420;10.538;2023-02-01T21:15:53;4.20;99.90
23083;DHT22;11709;52.420;10.538;2023-02-01T21:19:56;4.30;99.90
23083;DHT22;11709;52.420;10.538;2023-02-01T21:23:59;4.40;99.90
23083;DHT22;11709;52.420;10.538;2023-02-01T21:28:01;4.40;99.90
23083;DHT22;11709;52.420;10.538;2023-02-01T21:32:05;4.50;99.90
23083;DHT22;11709;52.420;10.538;2023-02-01T21:36:08;4.60;99.90
23083;DHT22;11709;52.420;10.538;2023-02-01T21:40:12;4.70;99.90
23083;DHT22;11709;52.420;10.538;2023-02-01T21:44:15;4.80;99.90
23083;DHT22;11709;52.420;10.538;2023-02-01T21:48:18;4.80;99.90
23083;DHT22;11709;52.420;10.538;2023-02-01T21:52:21;4.90;99.90
23083;DHT22;11709;52.420;10.538;2023-02-01T21:56:23;4.90;99.90
23083;DHT22;11709;52.420;10.538;2023-02-01T22:00:26;4.90;99.90
23083;DHT22;11709;52.420;10.538;2023-02-01T22:04:28;4.90;99.90
23083;DHT22;11709;52.420;10.538;2023-02-01T22:08:36;4.90;99.90
23083;DHT22;11709;52.420;10.538;2023-02-01T22:12:38;5.00;99.90
23083;DHT22;11709;52.420;10.538;2023-02-01T22:16:41;5.00;99.90
23083;DHT22;11709;52.420;10.538;2023-02-01T22:20:44;5.00;99.90
23083;DHT22;11709;52.420;10.538;2023-02-01T22:24:46;5.00;99.90
23083;DHT22;11709;52.420;10.538;2023-02-01T22:28:49;5.00;99.90
23083;DHT22;11709;52.420;10.538;2023-02-01T22:32:51;5.00;99.90
23083;DHT22;11709;52.420;10.538;2023-02-01T22:36:54;4.90;99.90
23083;DHT22;11709;52.420;10.538;2023-02-01T22:40:58;5.00;99.90
23083;DHT22;11709;52.420;10.538;2023-02-01T22:45:01;5.00;99.90
23083;DHT22;11709;52.420;10.538;2023-02-01T22:49:05;5.00;99.90
23083;DHT22;11709;52.420;10.538;2023-02-01T22:53:07;5.00;99.90
23083;DHT22;11709;52.420;10.538;2023-02-01T22:57:10;5.10;99.90
23083;DHT22;11709;52.420;10.538;2023-02-01T23:01:14;5.10;99.90
23083;DHT22;11709;52.420;10.538;2023-02-01T23:05:17;5.00;99.90
23083;DHT22;11709;52.420;10.538;2023-02-01T23:09:22;5.10;99.90
23083;DHT22;11709;52.420;10.538;2023-02-01T23:13:25;5.10;99.90
23083;DHT22;11709;52.420;10.538;2023-02-01T23:17:28;5.10;99.90
23083;DHT22;11709;52.420;10.538;2023-02-01T23:21:31;5.10;99.90
23083;DHT22;11709;52.420;10.538;2023-02-01T23:25:33;5.10;99.90
23083;DHT22;11709;52.420;10.538;2023-02-01T23:29:36;5.10;99.90
23083;DHT22;11709;52.420;10.538;2023-02-01T23:33:39;5.10;99.90
23083;DHT22;11709;52.420;10.538;2023-02-01T23:37:42;5.10;99.90
23083;DHT22;11709;52.420;10.538;2023-02-01T23:41:45;5.10;99.90
23083;DHT22;11709;52.420;10.538;2023-02-01T23:45:47;5.10;99.90
23083;DHT22;11709;52.420;10.538;2023-02-01T23:49:50;5.00;99.90
23083;DHT22;11709;52.420;10.538;2023-02-01T23:53:53;5.00;99.90
23083;DHT22;11709;52.420;10.538;2023-02-01T23:57:56;5.00;99.90
